Aeroporto :
LOGIN :

Iscrizione | Disclaimer

   EN    FR    IT 

 










Sommario :    VFR   VFR Marginale   IFR   IFR Intensivo   IFR Molto Intensivo
Visibilità : 
Base nubi : 
>= 8 km
>= 3000ft
5 / 8 km
1000 / 3000 ft
1500m / 5 km
500 / 1000 ft
800 / 1500m
200 / 500 ft
< 800m
< 200 ft
Simboli :   Temporali  Nebbia  Neve Forte  Precipitazioni Forti  Vento > 20 kt
SIGMETs :   Varie  Temporali  Ghiacco  Turbolenza  Onda orograficha  Ceneri Vulcaniche






- Altitudine del aeroporto : 33 ft
- Codice IATA : MHZ


EGUN - RAF Mildenhall

ULTIMO METAR :
  • 200116Z AUTO 14007KT 9999 BKN045 04/04 A2998 RMK AO2 SLP156 $

METARs OBSOLETI :
  • 200041Z AUTO 14005KT 9999 SCT048 03/03 A2998 RMK AO2 SLPNO $
  • 192356Z AUTO M 9999 OVC048 04/04 A2998 RMK AO2 SLP156 T00350035 10043 20027 400681028 58005 $
  • 192256Z AUTO 14006KT 9999 OVC047 04/04 A2999 RMK AO2 SLP159 T00380038 $
  • 192246Z AUTO 14007KT 9999 BKN047 04/04 A2999 RMK AO2 SLP159 $

TAF TAF EGUN
Valido dal 19 a 20 ore il 21 a 02 ore UTC


192001Z 1920/2102 15009KT 9999 SCT035 QNH3000INS
BECMG 2006/2007 13012KT 9000 BR BKN030 QNH2999INS
BECMG 2009/2010 14006KT 9999 NSW BKN025 QNH2980INS TX07/2012Z TN02/1923Z



MetMap, La meteo Aeronautica in un colpo d'occhio ! - Copyright ORBIFLY Dicembre 2007 - Disclaimer

ORBIFLY MET'MAP TEAM :

Programmazione e sviluppo : Alexandra Zaïnal
Concezione e sviluppo : Baudouin d'Aumeries
Co-Programmazione e sviluppo : Marc-Olivier Méhu
Supporto tecnico e logistico : Manuel Goepfert
Aiuto per la traduzione : Arnaldo La Scala

Contatto : metmap@orbifly.com




FONTI E CREDITI :

   NOAA